createdAt,value
2023-05-11T00:02:14.141Z,94.95
2023-05-11T00:04:41.393Z,95.30
2023-05-11T00:07:08.484Z,96.02
2023-05-11T00:09:35.891Z,96.68
2023-05-11T00:12:02.997Z,96.91
2023-05-11T00:14:29.819Z,97.09
2023-05-11T00:16:56.572Z,97.33
2023-05-11T00:19:23.354Z,97.72
2023-05-11T00:21:50.258Z,97.78
2023-05-11T00:24:16.995Z,98.11
2023-05-11T00:26:43.943Z,98.84
2023-05-11T00:29:11.073Z,98.99
2023-05-11T00:31:37.870Z,99.24
2023-05-11T00:34:04.733Z,99.80
2023-05-11T00:36:31.718Z,100.00
2023-05-11T00:38:58.510Z,100.00
2023-05-11T00:41:25.511Z,100.00
2023-05-11T00:43:52.402Z,100.00
2023-05-11T00:46:19.269Z,100.00
2023-05-11T00:48:46.386Z,100.00
2023-05-11T00:51:13.614Z,100.00
2023-05-11T00:53:40.508Z,100.00
2023-05-11T00:56:07.610Z,100.00
2023-05-11T00:58:35.120Z,100.00
2023-05-11T01:01:01.914Z,100.00
2023-05-11T01:03:29.651Z,100.00
2023-05-11T01:06:08.969Z,100.00
2023-05-11T01:08:53.356Z,100.00
2023-05-11T01:11:44.078Z,100.00
2023-05-11T01:14:27.348Z,100.00
2023-05-11T01:16:57.165Z,100.00
2023-05-11T01:19:48.756Z,100.00
2023-05-11T01:22:44.642Z,100.00
2023-05-11T01:25:39.271Z,100.00
2023-05-11T01:28:44.100Z,100.00
2023-05-11T01:31:11.376Z,100.00
2023-05-11T01:33:41.287Z,100.00
2023-05-11T01:36:10.177Z,100.00
2023-05-11T01:38:40.862Z,100.00
2023-05-11T01:41:15.780Z,100.00
2023-05-11T01:43:44.321Z,100.00
2023-05-11T01:46:11.348Z,100.00
2023-05-11T01:48:40.190Z,100.00
2023-05-11T01:51:07.165Z,100.00
2023-05-11T01:53:35.714Z,100.00
2023-05-11T01:56:02.883Z,100.00
2023-05-11T01:58:29.807Z,100.00
2023-05-11T02:00:57.228Z,100.00
2023-05-11T02:03:24.182Z,100.00
2023-05-11T02:05:51.064Z,100.00
2023-05-11T02:08:18.502Z,100.00
2023-05-11T02:10:46.104Z,100.00
2023-05-11T02:13:13.605Z,100.00
2023-05-11T02:15:41.674Z,100.00
2023-05-11T02:18:12.321Z,100.00
2023-05-11T02:20:39.632Z,100.00
2023-05-11T02:23:06.950Z,100.00
2023-05-11T02:25:33.817Z,100.00
2023-05-11T02:28:00.724Z,100.00
2023-05-11T02:30:28.085Z,100.00
2023-05-11T02:32:55.571Z,100.00
2023-05-11T02:35:24.478Z,100.00
2023-05-11T02:37:52.722Z,100.00
2023-05-11T02:40:21.913Z,100.00
2023-05-11T02:42:49.989Z,100.00
2023-05-11T02:45:16.979Z,100.00
2023-05-11T02:47:47.625Z,100.00
2023-05-11T02:50:19.484Z,100.00
2023-05-11T02:52:47.685Z,100.00
2023-05-11T02:55:15.453Z,100.00
2023-05-11T02:57:42.760Z,100.00
2023-05-11T03:00:10.932Z,100.00
2023-05-11T03:02:38.078Z,100.00
2023-05-11T03:05:06.307Z,100.00
2023-05-11T03:07:33.333Z,100.00
2023-05-11T03:10:01.208Z,100.00
2023-05-11T03:12:33.082Z,100.00
2023-05-11T03:15:00.890Z,100.00
2023-05-11T03:17:29.054Z,100.00
2023-05-11T03:19:56.752Z,100.00
2023-05-11T03:22:24.484Z,100.00
2023-05-11T03:24:51.854Z,100.00
2023-05-11T03:27:18.869Z,100.00
2023-05-11T03:29:45.742Z,100.00
2023-05-11T03:32:13.004Z,99.82
2023-05-11T03:34:40.262Z,97.66
2023-05-11T03:37:07.787Z,95.51
2023-05-11T03:39:35.258Z,93.39
2023-05-11T03:42:04.071Z,90.27
2023-05-11T03:44:34.545Z,87.62
2023-05-11T03:47:01.944Z,84.82
2023-05-11T03:49:28.981Z,82.06
2023-05-11T03:51:56.100Z,79.24
2023-05-11T03:54:23.854Z,77.32
2023-05-11T03:56:51.769Z,75.11
2023-05-11T03:59:19.561Z,73.26
2023-05-11T04:01:46.609Z,71.86
2023-05-11T04:04:14.153Z,70.73
2023-05-11T04:06:41.428Z,69.19
2023-05-11T04:09:12.647Z,66.81
2023-05-11T04:11:39.817Z,64.66
2023-05-11T04:14:06.779Z,62.82
2023-05-11T04:16:33.722Z,61.51
2023-05-11T04:19:02.350Z,59.73
2023-05-11T04:21:29.348Z,58.75
2023-05-11T04:23:56.439Z,56.89
2023-05-11T04:26:24.582Z,54.60
2023-05-11T04:28:51.356Z,52.13
2023-05-11T04:31:18.147Z,50.36
2023-05-11T04:33:44.938Z,48.52
2023-05-11T04:36:12.043Z,47.04
2023-05-11T04:38:39.171Z,45.49
2023-05-11T04:41:07.692Z,44.68
2023-05-11T04:43:35.428Z,43.60
2023-05-11T04:46:02.361Z,42.41
2023-05-11T04:48:29.858Z,42.09
2023-05-11T04:50:56.931Z,41.84
2023-05-11T04:53:28.533Z,41.05
2023-05-11T04:55:55.531Z,40.53
2023-05-11T04:58:22.671Z,39.92
2023-05-11T05:00:49.579Z,40.29
2023-05-11T05:03:16.398Z,40.90
2023-05-11T05:05:43.229Z,41.54
2023-05-11T05:08:10.327Z,42.60
2023-05-11T05:10:38.102Z,43.86
2023-05-11T05:13:04.982Z,44.64
2023-05-11T05:15:31.885Z,45.69
2023-05-11T05:17:59.573Z,46.29
2023-05-11T05:20:26.372Z,47.33
2023-05-11T05:22:53.338Z,48.44
2023-05-11T05:25:21.706Z,49.69
2023-05-11T05:27:51.818Z,50.61
2023-05-11T05:30:19.925Z,51.82
2023-05-11T05:32:48.207Z,53.26
2023-05-11T05:35:15.150Z,54.08
2023-05-11T05:37:43.220Z,54.76
2023-05-11T05:40:11.203Z,55.26
2023-05-11T05:42:46.094Z,56.67
2023-05-11T05:45:16.120Z,57.43
2023-05-11T05:47:43.149Z,57.78
2023-05-11T05:50:11.880Z,57.80
2023-05-11T05:52:40.685Z,58.72
2023-05-11T05:55:08.306Z,58.34
2023-05-11T05:57:36.876Z,59.02
2023-05-11T06:00:04.662Z,59.96
2023-05-11T06:02:40.007Z,59.84
2023-05-11T06:05:08.191Z,60.01
2023-05-11T06:07:35.160Z,60.90
2023-05-11T06:10:02.229Z,61.23
2023-05-11T06:12:30.246Z,61.34
2023-05-11T06:14:58.107Z,62.17
2023-05-11T06:17:25.795Z,62.44
2023-05-11T06:19:52.688Z,62.46
2023-05-11T06:22:22.299Z,62.50
2023-05-11T06:24:50.696Z,63.07
2023-05-11T06:27:18.483Z,62.74
2023-05-11T06:29:45.836Z,62.20
2023-05-11T06:32:12.714Z,62.27
2023-05-11T06:34:39.854Z,62.87
2023-05-11T06:37:07.515Z,63.17
2023-05-11T06:39:37.815Z,62.75
2023-05-11T06:42:07.980Z,63.53
2023-05-11T06:44:34.981Z,63.65
2023-05-11T06:47:01.809Z,64.39
2023-05-11T06:49:28.944Z,64.83
2023-05-11T06:51:56.034Z,64.56
2023-05-11T06:56:02.430Z,64.54
2023-05-11T06:58:29.906Z,65.06
2023-05-11T07:00:56.757Z,64.97
2023-05-11T07:03:23.863Z,65.14
2023-05-11T07:05:50.666Z,64.38
2023-05-11T07:08:17.453Z,63.79
2023-05-11T07:10:44.222Z,64.17
2023-05-11T07:13:11.279Z,63.91
2023-05-11T07:15:37.973Z,63.33
2023-05-11T07:18:05.024Z,63.03
2023-05-11T07:20:32.173Z,62.97
2023-05-11T07:22:59.423Z,63.16
2023-05-11T07:25:26.214Z,63.02
2023-05-11T07:27:53.243Z,62.67
2023-05-11T07:30:20.539Z,60.84
2023-05-11T07:32:48.229Z,60.97
2023-05-11T07:35:18.098Z,61.10
2023-05-11T07:37:44.977Z,60.22
2023-05-11T07:40:12.246Z,59.61
2023-05-11T07:42:39.212Z,59.06
2023-05-11T07:45:06.989Z,58.68
2023-05-11T07:47:36.781Z,58.97
2023-05-11T07:50:04.391Z,58.64
2023-05-11T07:52:31.134Z,58.57
2023-05-11T07:54:57.936Z,56.78
2023-05-11T07:57:24.822Z,56.79
2023-05-11T07:59:51.690Z,56.82
2023-05-11T08:02:19.109Z,56.63
2023-05-11T08:04:46.212Z,56.50
2023-05-11T08:07:13.011Z,56.75
2023-05-11T08:09:39.945Z,56.79
2023-05-11T08:12:07.316Z,57.38
2023-05-11T08:14:34.200Z,55.73
2023-05-11T08:17:01.290Z,55.38
2023-05-11T08:19:28.092Z,55.54
2023-05-11T08:21:54.859Z,55.60
2023-05-11T08:24:21.688Z,55.70
2023-05-11T08:26:48.635Z,55.37
2023-05-11T08:29:15.536Z,55.30
2023-05-11T08:31:42.378Z,54.69
2023-05-11T08:34:18.453Z,52.23
2023-05-11T08:36:46.024Z,51.57
2023-05-11T08:39:12.973Z,51.46
2023-05-11T08:41:39.773Z,53.26
2023-05-11T08:44:06.575Z,52.72
2023-05-11T08:46:35.711Z,52.33
2023-05-11T08:49:02.611Z,52.71
2023-05-11T08:51:29.485Z,51.14
2023-05-11T08:53:57.897Z,51.40
2023-05-11T08:56:24.919Z,51.10
2023-05-11T08:58:53.112Z,51.03
2023-05-11T09:01:23.378Z,51.12
2023-05-11T09:03:50.610Z,51.08
2023-05-11T09:06:17.973Z,48.25
2023-05-11T09:08:45.393Z,47.48
2023-05-11T09:11:12.398Z,47.85
2023-05-11T09:13:39.464Z,47.33
2023-05-11T09:16:13.872Z,47.48
2023-05-11T09:18:51.264Z,49.23
2023-05-11T09:21:18.435Z,49.23
2023-05-11T09:23:45.228Z,48.33
2023-05-11T09:26:21.159Z,47.53
2023-05-11T09:29:03.081Z,46.80
2023-05-11T09:31:39.992Z,47.26
2023-05-11T09:34:20.956Z,46.66
2023-05-11T09:36:50.539Z,45.73
2023-05-11T09:39:35.047Z,45.25
2023-05-11T09:42:18.149Z,42.47
2023-05-11T09:44:45.612Z,42.44
2023-05-11T09:47:13.003Z,42.95
2023-05-11T09:49:43.325Z,43.38
2023-05-11T09:52:11.622Z,44.54
2023-05-11T09:54:48.875Z,43.84
2023-05-11T09:57:29.283Z,43.77
2023-05-11T09:59:57.134Z,44.06
2023-05-11T10:02:26.324Z,43.01
2023-05-11T10:04:55.034Z,41.52
2023-05-11T10:07:25.175Z,40.27
2023-05-11T10:09:53.634Z,40.97
2023-05-11T10:12:22.073Z,39.66
2023-05-11T10:14:50.035Z,41.79
2023-05-11T10:17:17.423Z,41.94
2023-05-11T10:19:44.250Z,40.48
2023-05-11T10:22:11.440Z,40.27
2023-05-11T10:24:38.258Z,40.48
2023-05-11T10:27:05.507Z,41.11
2023-05-11T10:29:32.358Z,40.54
2023-05-11T10:32:00.172Z,40.15
2023-05-11T10:34:29.292Z,40.10
2023-05-11T10:37:01.537Z,39.23
2023-05-11T10:39:31.571Z,37.49
2023-05-11T10:42:27.264Z,38.72
2023-05-11T10:45:45.816Z,39.06
2023-05-11T10:48:31.555Z,38.84
2023-05-11T10:51:13.107Z,39.08
2023-05-11T10:53:49.211Z,39.35
2023-05-11T10:56:31.812Z,41.25
2023-05-11T10:59:47.186Z,41.49
2023-05-11T11:02:13.983Z,40.27
2023-05-11T11:04:51.727Z,39.29
2023-05-11T11:07:19.930Z,38.85
2023-05-11T11:10:00.713Z,37.71
2023-05-11T11:12:28.298Z,37.51
2023-05-11T11:15:06.728Z,37.28
2023-05-11T11:17:35.073Z,37.63
2023-05-11T11:20:08.706Z,38.46
2023-05-11T11:22:38.913Z,38.95
2023-05-11T11:25:06.422Z,39.14
2023-05-11T11:27:45.822Z,38.85
2023-05-11T11:30:22.989Z,39.26
2023-05-11T11:32:51.120Z,38.25
2023-05-11T11:35:40.206Z,37.52
2023-05-11T11:38:07.654Z,38.16
2023-05-11T11:40:51.112Z,38.35
2023-05-11T11:43:23.536Z,37.97
2023-05-11T11:46:02.920Z,39.42
2023-05-11T11:48:35.451Z,39.20
2023-05-11T11:51:10.547Z,38.14
2023-05-11T11:53:37.884Z,37.36
2023-05-11T11:56:05.783Z,38.10
2023-05-11T11:58:41.889Z,39.34
2023-05-11T12:01:09.288Z,38.94
2023-05-11T12:03:36.888Z,39.09
2023-05-11T12:06:08.325Z,39.04
2023-05-11T12:08:35.621Z,38.92
2023-05-11T12:11:03.077Z,39.41
2023-05-11T12:13:30.317Z,40.47
2023-05-11T12:16:09.744Z,39.60
2023-05-11T12:18:36.884Z,38.90
2023-05-11T12:21:03.912Z,38.87
2023-05-11T12:23:30.822Z,38.30
2023-05-11T12:26:07.221Z,37.38
2023-05-11T12:28:34.178Z,39.35
2023-05-11T12:31:01.063Z,39.03
2023-05-11T12:33:27.855Z,39.33
2023-05-11T12:35:55.523Z,38.73
2023-05-11T12:38:22.363Z,37.65
2023-05-11T12:40:50.075Z,36.00
2023-05-11T12:43:18.115Z,37.10
2023-05-11T12:45:45.332Z,37.78
2023-05-11T12:48:12.699Z,37.63
2023-05-11T12:50:43.414Z,37.94
2023-05-11T12:53:15.148Z,37.52
2023-05-11T12:55:42.108Z,38.23
2023-05-11T13:00:58.451Z,37.51
2023-05-11T13:03:26.811Z,36.78
2023-05-11T13:06:10.062Z,36.66
2023-05-11T13:08:44.251Z,37.99
2023-05-11T13:11:22.839Z,39.00
2023-05-11T13:13:50.508Z,38.53
2023-05-11T13:16:28.124Z,38.20
2023-05-11T13:19:02.494Z,37.10
2023-05-11T13:21:29.973Z,37.96
2023-05-11T13:23:57.050Z,38.14
2023-05-11T13:26:29.440Z,37.64
2023-05-11T13:29:09.364Z,37.18
2023-05-11T13:31:47.558Z,36.99
2023-05-11T13:34:14.616Z,35.96
2023-05-11T13:36:41.461Z,34.98
2023-05-11T13:39:08.381Z,34.75
2023-05-11T13:41:35.488Z,35.23
2023-05-11T13:44:03.083Z,35.37
2023-05-11T13:46:29.980Z,35.62
2023-05-11T13:48:56.808Z,36.73
2023-05-11T13:51:23.880Z,37.46
2023-05-11T13:53:51.045Z,37.27
2023-05-11T13:56:19.673Z,37.53
2023-05-11T13:58:46.647Z,37.36
2023-05-11T14:01:13.723Z,36.81
2023-05-11T14:03:40.749Z,36.75
2023-05-11T14:06:07.811Z,35.75
2023-05-11T14:08:34.756Z,35.46
2023-05-11T14:11:01.584Z,35.74
2023-05-11T14:13:28.451Z,35.58
2023-05-11T14:15:55.368Z,36.01
2023-05-11T14:18:25.010Z,35.78
2023-05-11T14:20:52.045Z,36.47
2023-05-11T14:23:18.846Z,36.76
2023-05-11T14:25:45.572Z,36.28
2023-05-11T14:28:12.445Z,36.55
2023-05-11T14:30:39.455Z,37.36
2023-05-11T14:33:06.661Z,37.77
2023-05-11T14:35:33.818Z,36.76
2023-05-11T14:38:01.247Z,36.66
2023-05-11T14:40:27.984Z,36.89
2023-05-11T14:42:55.077Z,36.97
2023-05-11T14:45:22.096Z,37.41
2023-05-11T14:47:49.010Z,36.81
2023-05-11T14:50:16.207Z,36.96
2023-05-11T14:52:42.896Z,37.41
2023-05-11T14:55:09.899Z,37.80
2023-05-11T14:57:36.780Z,37.56
2023-05-11T15:00:04.188Z,37.53
2023-05-11T15:02:31.095Z,35.98
2023-05-11T15:04:58.039Z,36.50
2023-05-11T15:07:24.956Z,37.58
2023-05-11T15:09:52.270Z,37.38
2023-05-11T15:12:19.095Z,37.35
2023-05-11T15:14:46.167Z,36.52
2023-05-11T15:17:12.983Z,36.75
2023-05-11T15:19:39.802Z,36.98
2023-05-11T15:22:06.581Z,37.22
2023-05-11T15:24:34.087Z,36.98
2023-05-11T15:27:00.954Z,36.38
2023-05-11T15:29:27.701Z,36.23
2023-05-11T15:31:55.041Z,35.65
2023-05-11T15:34:22.044Z,35.09
2023-05-11T15:36:49.895Z,34.33
2023-05-11T15:39:17.393Z,34.39
2023-05-11T15:41:44.458Z,34.57
2023-05-11T15:44:11.299Z,35.00
2023-05-11T15:46:38.659Z,35.36
2023-05-11T15:49:06.359Z,35.86
2023-05-11T15:51:33.161Z,36.11
2023-05-11T15:53:59.990Z,36.91
2023-05-11T15:56:27.045Z,36.57
2023-05-11T15:58:53.969Z,36.85
2023-05-11T16:01:21.197Z,36.71
2023-05-11T16:03:48.112Z,37.29
2023-05-11T16:06:15.066Z,37.58
2023-05-11T16:08:42.129Z,36.88
2023-05-11T16:11:08.935Z,37.16
2023-05-11T16:13:35.731Z,37.37
2023-05-11T16:16:02.548Z,37.87
2023-05-11T16:18:29.437Z,37.65
2023-05-11T16:20:56.547Z,37.37
2023-05-11T16:23:25.475Z,37.60
2023-05-11T16:25:52.476Z,37.85
2023-05-11T16:28:19.836Z,38.38
2023-05-11T16:30:47.098Z,38.94
2023-05-11T16:33:14.393Z,39.15
2023-05-11T16:35:41.332Z,39.07
2023-05-11T16:38:16.820Z,38.91
2023-05-11T16:40:44.365Z,38.69
2023-05-11T16:43:11.333Z,38.66
2023-05-11T16:45:38.376Z,39.04
2023-05-11T16:48:05.891Z,39.13
2023-05-11T16:50:32.904Z,39.37
2023-05-11T16:52:59.975Z,39.64
2023-05-11T16:55:26.824Z,39.75
2023-05-11T16:57:53.698Z,40.08
2023-05-11T17:00:21.809Z,40.26
2023-05-11T17:02:48.991Z,40.38
2023-05-11T17:05:15.924Z,40.75
2023-05-11T17:07:44.920Z,41.15
2023-05-11T17:10:11.963Z,41.36
2023-05-11T17:12:38.793Z,41.62
2023-05-11T17:15:10.058Z,41.67
2023-05-11T17:17:37.993Z,41.88
2023-05-11T17:20:07.782Z,42.37
2023-05-11T17:22:34.989Z,42.73
2023-05-11T17:25:03.906Z,43.16
2023-05-11T17:27:31.623Z,43.44
2023-05-11T17:29:58.588Z,43.83
2023-05-11T17:32:25.618Z,43.86
2023-05-11T17:34:52.595Z,44.45
2023-05-11T17:37:31.325Z,44.65
2023-05-11T17:40:01.510Z,44.85
2023-05-11T17:42:28.634Z,45.56
2023-05-11T17:44:55.745Z,45.94
2023-05-11T17:47:23.250Z,46.28
2023-05-11T17:49:50.547Z,46.71
2023-05-11T17:52:17.516Z,46.91
2023-05-11T17:54:44.492Z,47.15
2023-05-11T17:57:11.314Z,47.47
2023-05-11T17:59:38.399Z,47.93
2023-05-11T18:02:05.621Z,48.38
2023-05-11T18:04:32.396Z,48.59
2023-05-11T18:07:00.425Z,48.68
2023-05-11T18:09:27.212Z,48.95
2023-05-11T18:11:54.062Z,48.84
2023-05-11T18:14:21.189Z,49.59
2023-05-11T18:16:50.555Z,50.39
2023-05-11T18:19:18.163Z,50.14
2023-05-11T18:21:45.596Z,50.69
2023-05-11T18:24:14.625Z,50.66
2023-05-11T18:26:42.049Z,51.01
2023-05-11T18:29:08.842Z,51.39
2023-05-11T18:31:36.304Z,51.58
2023-05-11T18:34:04.648Z,51.58
2023-05-11T18:36:31.553Z,52.20
2023-05-11T18:38:58.385Z,52.26
2023-05-11T18:41:25.388Z,52.42
2023-05-11T18:43:53.597Z,52.54
2023-05-11T18:46:21.611Z,52.87
2023-05-11T18:48:52.844Z,53.09
2023-05-11T18:51:22.909Z,53.48
2023-05-11T18:53:50.041Z,53.76
2023-05-11T18:56:17.384Z,54.06
2023-05-11T18:58:46.602Z,54.12
2023-05-11T19:01:14.172Z,54.39
2023-05-11T19:03:41.339Z,54.73
2023-05-11T19:06:08.230Z,54.62
2023-05-11T19:08:35.334Z,54.90
2023-05-11T19:13:32.013Z,55.35
2023-05-11T19:15:58.949Z,55.57
2023-05-11T19:18:27.499Z,55.51
2023-05-11T19:20:54.634Z,55.63
2023-05-11T19:23:21.783Z,55.89
2023-05-11T19:25:48.806Z,56.13
2023-05-11T19:28:15.852Z,56.23
2023-05-11T19:30:42.675Z,56.52
2023-05-11T19:33:09.592Z,56.88
2023-05-11T19:35:36.456Z,57.23
2023-05-11T19:38:06.121Z,57.21
2023-05-11T19:43:06.056Z,57.87
2023-05-11T19:45:33.300Z,57.91
2023-05-11T19:48:00.401Z,58.35
2023-05-11T19:50:27.825Z,58.64
2023-05-11T19:52:54.715Z,58.74
2023-05-11T19:55:21.836Z,59.09
2023-05-11T19:57:48.730Z,59.33
2023-05-11T20:00:18.217Z,59.61
2023-05-11T20:02:45.606Z,59.62
2023-05-11T20:05:12.646Z,59.84
2023-05-11T20:07:39.579Z,60.06
2023-05-11T20:10:07.091Z,60.41
2023-05-11T20:12:34.125Z,60.71
2023-05-11T20:15:01.026Z,60.89
2023-05-11T20:17:27.767Z,61.19
2023-05-11T20:19:55.083Z,61.41
2023-05-11T20:22:22.739Z,61.82
2023-05-11T20:24:49.602Z,61.79
2023-05-11T20:27:16.421Z,61.96
2023-05-11T20:29:43.424Z,62.40
2023-05-11T20:32:10.522Z,62.48
2023-05-11T20:34:37.397Z,62.76
2023-05-11T20:37:04.501Z,63.15
2023-05-11T20:39:31.304Z,63.26
2023-05-11T20:41:58.992Z,63.41
2023-05-11T20:44:26.218Z,63.77
2023-05-11T20:46:53.043Z,63.95
2023-05-11T20:49:34.732Z,64.31
2023-05-11T20:52:06.468Z,64.19
2023-05-11T20:54:35.077Z,64.69
2023-05-11T20:57:05.091Z,64.90
2023-05-11T21:02:02.297Z,65.47
2023-05-11T21:04:31.239Z,65.16
2023-05-11T21:06:58.121Z,65.51
2023-05-11T21:09:25.627Z,65.83
2023-05-11T21:11:52.527Z,66.22
2023-05-11T21:14:19.316Z,66.23
2023-05-11T21:16:46.260Z,66.60
2023-05-11T21:19:13.020Z,66.97
2023-05-11T21:21:39.811Z,66.94
2023-05-11T21:24:06.883Z,67.25
2023-05-11T21:26:33.611Z,67.26
2023-05-11T21:29:00.344Z,67.48
2023-05-11T21:31:27.413Z,67.81
2023-05-11T21:33:54.424Z,68.06
2023-05-11T21:36:22.352Z,68.28
2023-05-11T21:38:49.476Z,68.58
2023-05-11T21:41:17.012Z,68.68
2023-05-11T21:43:44.323Z,69.06
2023-05-11T21:46:11.254Z,69.27
2023-05-11T21:48:38.203Z,69.48
2023-05-11T21:51:05.024Z,69.61
2023-05-11T21:53:31.958Z,70.02
2023-05-11T21:55:58.971Z,70.27
2023-05-11T21:58:26.640Z,70.63
2023-05-11T22:00:55.794Z,70.69
2023-05-11T22:03:22.816Z,70.75
2023-05-11T22:05:49.756Z,71.28
2023-05-11T22:08:16.577Z,71.37
2023-05-11T22:10:43.399Z,71.76
2023-05-11T22:13:10.431Z,72.10
2023-05-11T22:15:37.446Z,72.09
2023-05-11T22:18:05.160Z,72.34
2023-05-11T22:20:32.113Z,72.64
2023-05-11T22:22:59.442Z,72.69
2023-05-11T22:25:26.672Z,72.93
2023-05-11T22:27:53.898Z,73.02
2023-05-11T22:30:21.101Z,73.41
2023-05-11T22:32:48.213Z,73.29
2023-05-11T22:35:15.064Z,73.67
2023-05-11T22:37:41.992Z,73.79
2023-05-11T22:40:09.610Z,74.06
2023-05-11T22:42:36.378Z,74.40
2023-05-11T22:45:03.372Z,74.39
2023-05-11T22:47:30.258Z,74.39
2023-05-11T22:49:57.322Z,74.62
2023-05-11T22:52:24.141Z,74.78
2023-05-11T22:55:04.055Z,74.87
2023-05-11T22:57:30.997Z,75.09
2023-05-11T22:59:57.935Z,75.17
2023-05-11T23:02:24.708Z,75.27
2023-05-11T23:04:52.282Z,75.65
2023-05-11T23:07:19.490Z,75.55
2023-05-11T23:09:46.432Z,75.69
2023-05-11T23:12:13.547Z,76.09
2023-05-11T23:14:40.445Z,76.47
2023-05-11T23:17:07.532Z,76.62
2023-05-11T23:19:35.256Z,77.21
2023-05-11T23:22:02.501Z,77.43
2023-05-11T23:24:29.303Z,77.68
2023-05-11T23:26:56.055Z,78.06
2023-05-11T23:29:22.967Z,78.00
2023-05-11T23:31:51.149Z,78.78
2023-05-11T23:34:18.439Z,79.13
2023-05-11T23:36:45.299Z,79.42
2023-05-11T23:39:12.381Z,79.53
2023-05-11T23:41:39.268Z,79.87
2023-05-11T23:44:06.044Z,80.10
2023-05-11T23:46:32.950Z,80.58
2023-05-11T23:48:59.737Z,80.67
2023-05-11T23:51:26.618Z,81.03
2023-05-11T23:53:53.377Z,81.31
2023-05-11T23:56:20.161Z,81.48
2023-05-11T23:58:47.134Z,81.52
